Time;durP1;ratioP1;P1;durP2;ratioP2;P2;SDS_P1;SDS_P2;PMS_P1;PMS_P2;Temp;Humidity;BMP_temperature;BMP_pressure;BME280_temperature;BME280_humidity;BME280_pressure;Samples;Min_cycle;Max_cycle;Signal;HPM_P1;HPM_P2
2021/03/12 00:00:43;;;;;;;21.52;5.50;;;7.50;86.50;;;;;;5112368;28;20120;-75
2021/03/12 00:03:17;;;;;;;22.83;5.07;;;7.40;85.80;;;;;;5112780;28;20024;-74
2021/03/12 00:05:44;;;;;;;22.92;3.95;;;7.50;85.90;;;;;;5110811;28;20442;-74
2021/03/12 00:08:10;;;;;;;19.10;4.65;;;7.50;85.40;;;;;;5111264;28;20115;-75
2021/03/12 00:10:35;;;;;;;17.13;3.53;;;7.50;85.10;;;;;;5112411;28;20106;-75
2021/03/12 00:13:01;;;;;;;19.02;3.25;;;7.50;84.90;;;;;;5112258;28;20374;-75
2021/03/12 00:15:27;;;;;;;18.20;3.65;;;7.50;84.60;;;;;;5112304;28;20012;-75
2021/03/12 00:17:53;;;;;;;18.48;3.10;;;7.50;84.30;;;;;;5111196;28;20018;-75
2021/03/12 00:20:24;;;;;;;14.07;2.90;;;7.50;84.80;;;;;;5112875;28;20509;-75
2021/03/12 00:22:50;;;;;;;16.83;3.42;;;7.50;84.20;;;;;;5112307;28;20015;-75
2021/03/12 00:25:18;;;;;;;17.83;4.53;;;7.40;84.90;;;;;;5111086;28;20359;-75
2021/03/12 00:27:43;;;;;;;12.80;2.85;;;7.40;84.10;;;;;;5111648;28;20020;-75
2021/03/12 00:30:11;;;;;;;15.15;4.47;;;7.40;83.90;;;;;;5111026;28;20031;-75
2021/03/12 00:32:37;;;;;;;12.75;2.75;;;7.50;83.60;;;;;;5112165;28;20016;-75
2021/03/12 00:35:04;;;;;;;17.55;4.28;;;7.40;83.40;;;;;;5112398;28;20452;-74
2021/03/12 00:37:30;;;;;;;15.88;3.22;;;7.50;83.60;;;;;;5110764;28;20076;-74
2021/03/12 00:39:56;;;;;;;15.07;3.45;;;7.40;83.70;;;;;;5110948;28;20035;-74
2021/03/12 00:42:22;;;;;;;12.60;3.13;;;7.40;83.20;;;;;;5110952;28;20018;-74
2021/03/12 00:44:47;;;;;;;13.57;3.78;;;7.40;82.50;;;;;;5112036;28;20351;-74
2021/03/12 00:47:13;;;;;;;12.77;3.30;;;7.40;83.00;;;;;;5110966;28;20022;-74
2021/03/12 00:49:39;;;;;;;14.25;3.05;;;7.40;82.70;;;;;;5111970;28;20325;-74
2021/03/12 00:52:05;;;;;;;14.15;2.80;;;7.40;83.00;;;;;;5110967;28;20073;-75
2021/03/12 00:54:30;;;;;;;12.65;2.97;;;7.40;82.60;;;;;;5111660;28;20480;-75
2021/03/12 00:56:56;;;;;;;14.55;2.70;;;7.40;82.80;;;;;;5112443;28;20026;-75
2021/03/12 00:59:22;;;;;;;12.13;2.95;;;7.30;82.90;;;;;;5112121;28;20398;-74
2021/03/12 01:01:47;;;;;;;11.90;2.75;;;7.30;83.00;;;;;;5112172;28;20030;-74
2021/03/12 01:04:13;;;;;;;18.08;3.10;;;7.30;82.90;;;;;;5110888;28;20173;-74
2021/03/12 01:06:39;;;;;;;13.77;2.70;;;7.30;82.90;;;;;;5111703;28;20128;-73
2021/03/12 01:09:05;;;;;;;18.70;3.70;;;7.30;83.00;;;;;;5113235;28;20565;-74
2021/03/12 01:11:31;;;;;;;12.23;2.92;;;7.30;82.80;;;;;;5115503;28;20028;-74
2021/03/12 01:13:56;;;;;;;13.45;3.03;;;7.30;82.90;;;;;;5114420;28;20015;-74
2021/03/12 01:16:22;;;;;;;15.10;3.67;;;7.30;83.30;;;;;;5114289;28;20463;-73
2021/03/12 01:18:47;;;;;;;11.48;2.75;;;7.30;83.10;;;;;;5114117;28;20451;-74
2021/03/12 01:21:13;;;;;;;22.88;4.75;;;7.30;83.10;;;;;;5114342;28;20055;-74
2021/03/12 01:23:39;;;;;;;20.52;3.85;;;7.30;83.00;;;;;;5115056;28;20027;-74
2021/03/12 01:26:04;;;;;;;16.00;4.25;;;7.20;83.80;;;;;;5113943;28;20367;-73
2021/03/12 01:28:30;;;;;;;14.43;3.42;;;7.20;83.10;;;;;;5115607;28;20023;-74
2021/03/12 01:30:56;;;;;;;15.27;3.50;;;7.30;83.10;;;;;;5113690;28;20444;-74
2021/03/12 01:33:22;;;;;;;13.85;2.55;;;7.20;82.80;;;;;;5113746;28;20047;-74
2021/03/12 01:35:47;;;;;;;17.67;3.58;;;7.20;82.80;;;;;;5113643;28;20015;-74
2021/03/12 01:38:13;;;;;;;15.80;3.17;;;7.30;82.80;;;;;;5115232;28;20084;-74
2021/03/12 01:40:43;;;;;;;14.02;3.20;;;7.20;82.60;;;;;;5114909;28;20505;-73
2021/03/12 01:43:09;;;;;;;17.40;3.10;;;7.20;82.80;;;;;;5115135;28;20024;-74
2021/03/12 01:45:34;;;;;;;12.27;3.10;;;7.20;82.80;;;;;;5114549;28;20470;-74
2021/03/12 01:48:01;;;;;;;14.32;3.28;;;7.20;82.70;;;;;;5113663;28;20015;-74
2021/03/12 01:50:27;;;;;;;22.70;4.38;;;7.20;82.40;;;;;;5113691;28;20023;-74
2021/03/12 01:52:52;;;;;;;16.73;3.67;;;7.20;82.30;;;;;;5114460;28;20934;-73
2021/03/12 01:55:31;;;;;;;12.80;3.30;;;7.20;82.50;;;;;;5114847;28;20049;-75
2021/03/12 01:57:58;;;;;;;13.52;3.05;;;7.20;82.50;;;;;;5114305;28;20440;-75
2021/03/12 02:00:24;;;;;;;17.77;3.50;;;7.20;82.30;;;;;;5114797;28;20024;-75
2021/03/12 02:02:50;;;;;;;14.05;3.10;;;7.20;82.10;;;;;;5114572;28;20043;-75
2021/03/12 02:05:16;;;;;;;10.98;2.50;;;7.20;82.30;;;;;;5112984;28;20058;-74
2021/03/12 02:07:42;;;;;;;9.60;3.95;;;7.20;82.20;;;;;;5113214;28;20416;-74
2021/03/12 02:10:11;;;;;;;16.10;3.42;;;7.20;81.80;;;;;;5113150;28;20471;-75
2021/03/12 02:13:02;;;;;;;11.23;3.35;;;7.20;82.00;;;;;;5113050;28;20023;-74
2021/03/12 02:15:36;;;;;;;21.92;3.97;;;7.20;81.80;;;;;;5114439;28;20027;-75
2021/03/12 02:18:22;;;;;;;13.65;3.38;;;7.20;81.80;;;;;;5114390;28;20016;-75
2021/03/12 02:20:55;;;;;;;16.40;3.33;;;7.20;82.30;;;;;;5111873;28;20016;-75
2021/03/12 02:23:49;;;;;;;12.57;3.22;;;7.10;82.40;;;;;;5114671;28;20027;-74
2021/03/12 02:26:29;;;;;;;19.13;4.30;;;7.10;82.80;;;;;;5114282;28;20022;-74
2021/03/12 02:28:57;;;;;;;15.13;3.67;;;7.10;82.80;;;;;;5097020;28;20032;-74
2021/03/12 02:31:24;;;;;;;18.15;4.43;;;7.10;82.80;;;;;;5092102;28;20020;-75
2021/03/12 02:33:50;;;;;;;17.13;4.00;;;7.10;82.80;;;;;;5092279;28;20552;-74
2021/03/12 02:36:19;;;;;;;19.83;4.93;;;7.10;83.00;;;;;;5092434;28;20111;-74
2021/03/12 02:38:45;;;;;;;14.73;4.22;;;7.00;83.10;;;;;;5093670;28;20027;-74
2021/03/12 02:41:12;;;;;;;8.30;3.20;;;7.00;83.30;;;;;;5093582;28;20020;-75
2021/03/12 02:43:38;;;;;;;14.60;2.63;;;7.00;83.30;;;;;;5091962;28;20069;-74
2021/03/12 02:46:05;;;;;;;18.92;3.15;;;7.00;83.30;;;;;;5092162;28;20013;-74
2021/03/12 02:48:32;;;;;;;19.23;3.40;;;7.00;83.30;;;;;;5092219;28;20016;-74
2021/03/12 02:50:57;;;;;;;14.77;3.42;;;7.00;83.40;;;;;;5091879;28;20039;-75
2021/03/12 02:53:24;;;;;;;16.77;3.03;;;6.90;83.40;;;;;;5093376;28;20012;-75
2021/03/12 02:55:50;;;;;;;16.58;2.92;;;6.90;83.30;;;;;;5091739;28;20453;-74
2021/03/12 02:58:16;;;;;;;16.48;3.35;;;6.90;83.30;;;;;;5091956;28;20520;-74
2021/03/12 03:00:42;;;;;;;15.05;3.25;;;6.90;83.70;;;;;;5091568;28;20043;-74
2021/03/12 03:03:09;;;;;;;19.73;3.67;;;6.90;83.70;;;;;;5091974;28;20036;-74
2021/03/12 03:05:36;;;;;;;18.13;4.55;;;6.90;83.60;;;;;;5091438;28;20508;-75
2021/03/12 03:08:03;;;;;;;17.00;3.22;;;6.90;83.70;;;;;;5091894;28;20352;-75
2021/03/12 03:10:28;;;;;;;15.20;3.65;;;6.80;83.40;;;;;;5093030;28;20085;-75
2021/03/12 03:12:55;;;;;;;15.05;3.03;;;6.80;83.60;;;;;;5091473;28;20360;-75
2021/03/12 03:15:22;;;;;;;12.35;2.53;;;6.80;83.40;;;;;;5092699;28;20035;-75
2021/03/12 03:17:50;;;;;;;19.20;3.30;;;6.80;83.50;;;;;;5091368;28;20024;-75
2021/03/12 03:20:17;;;;;;;17.50;3.58;;;6.80;83.40;;;;;;5093271;28;20020;-75
2021/03/12 03:22:46;;;;;;;18.40;3.30;;;6.80;83.40;;;;;;5092439;28;20456;-75
2021/03/12 03:25:13;;;;;;;11.80;2.53;;;6.80;83.60;;;;;;5092930;28;20051;-75
2021/03/12 03:27:40;;;;;;;12.35;3.10;;;6.80;83.60;;;;;;5098740;28;20678;-75
2021/03/12 03:30:10;;;;;;;14.00;2.83;;;6.70;83.20;;;;;;5111659;28;20042;-74
2021/03/12 03:32:35;;;;;;;20.65;3.65;;;6.80;83.30;;;;;;5111571;28;20039;-73
2021/03/12 03:35:03;;;;;;;12.30;2.92;;;6.70;83.00;;;;;;5112884;28;20043;-74
2021/03/12 03:37:29;;;;;;;17.65;3.55;;;6.70;83.10;;;;;;5113165;28;20028;-74
2021/03/12 03:39:55;;;;;;;27.23;4.53;;;6.70;83.20;;;;;;5112682;28;20148;-74
2021/03/12 03:42:26;;;;;;;16.75;2.60;;;6.70;83.10;;;;;;5111618;28;20027;-75
2021/03/12 03:44:54;;;;;;;16.52;3.47;;;6.70;83.30;;;;;;5112321;28;20026;-74
2021/03/12 03:47:21;;;;;;;19.08;3.75;;;6.70;83.50;;;;;;5111640;28;20020;-74
2021/03/12 03:49:47;;;;;;;11.75;2.60;;;6.70;83.50;;;;;;5111332;28;20092;-74
2021/03/12 03:52:13;;;;;;;14.18;3.00;;;6.70;83.40;;;;;;5112904;28;20030;-74
2021/03/12 03:54:41;;;;;;;14.32;3.25;;;6.60;83.40;;;;;;5111511;28;20012;-74
2021/03/12 03:57:08;;;;;;;12.38;2.28;;;6.60;83.90;;;;;;5111400;28;20512;-74
2021/03/12 03:59:40;;;;;;;13.90;2.92;;;6.60;83.70;;;;;;5111106;28;20023;-74
2021/03/12 04:02:08;;;;;;;12.35;2.50;;;6.60;83.90;;;;;;5112408;28;20055;-74
2021/03/12 04:04:35;;;;;;;19.67;3.88;;;6.60;83.90;;;;;;5111199;28;20410;-74
2021/03/12 04:07:01;;;;;;;20.52;4.82;;;6.60;84.20;;;;;;5110652;28;20484;-75
2021/03/12 04:09:27;;;;;;;14.45;3.85;;;6.60;84.70;;;;;;5113039;28;20024;-75
2021/03/12 04:11:55;;;;;;;17.70;3.50;;;6.50;84.90;;;;;;5110974;28;20031;-74
2021/03/12 04:14:21;;;;;;;22.40;4.20;;;6.50;85.10;;;;;;5111369;28;20160;-75
2021/03/12 04:16:47;;;;;;;16.02;4.50;;;6.40;85.80;;;;;;5112348;28;20023;-75
2021/03/12 04:19:14;;;;;;;17.88;3.35;;;6.40;85.30;;;;;;5112629;28;20019;-74
2021/03/12 04:21:40;;;;;;;21.83;3.72;;;6.40;85.40;;;;;;5113095;28;20028;-74
2021/03/12 04:24:07;;;;;;;17.55;3.15;;;6.30;85.50;;;;;;5111054;28;20046;-74
2021/03/12 04:26:33;;;;;;;10.60;2.90;;;6.30;85.60;;;;;;5110739;28;20023;-74
2021/03/12 04:28:59;;;;;;;13.02;3.17;;;6.30;85.70;;;;;;5112145;28;20120;-74
2021/03/12 04:31:25;;;;;;;18.02;3.58;;;6.20;85.90;;;;;;5111063;28;20474;-74
2021/03/12 04:33:51;;;;;;;14.02;2.72;;;6.20;86.10;;;;;;5110778;28;20054;-74
2021/03/12 04:36:18;;;;;;;19.77;4.32;;;6.10;86.20;;;;;;5112649;28;20355;-74
2021/03/12 04:38:45;;;;;;;16.45;3.42;;;6.00;86.10;;;;;;5112087;28;20019;-74
2021/03/12 04:41:11;;;;;;;17.25;2.40;;;6.00;86.40;;;;;;5110993;28;20106;-75
2021/03/12 04:43:40;;;;;;;13.48;2.90;;;5.90;86.30;;;;;;5113178;28;20047;-74
2021/03/12 04:46:05;;;;;;;20.10;3.17;;;5.90;86.60;;;;;;5116006;28;20102;-74
2021/03/12 04:48:32;;;;;;;14.82;3.42;;;5.90;86.60;;;;;;5114626;28;20127;-74
2021/03/12 04:50:58;;;;;;;20.58;3.17;;;5.80;86.70;;;;;;5114717;28;20032;-74
2021/03/12 04:53:28;;;;;;;13.82;2.78;;;5.70;86.80;;;;;;5114852;28;20466;-74
2021/03/12 04:55:54;;;;;;;16.65;3.58;;;5.70;86.90;;;;;;5114565;28;20026;-74
2021/03/12 04:58:19;;;;;;;18.48;3.38;;;5.70;87.20;;;;;;5114724;28;20016;-74
2021/03/12 05:00:45;;;;;;;18.02;3.10;;;5.60;87.30;;;;;;5114078;28;20023;-74
2021/03/12 05:03:11;;;;;;;17.02;2.95;;;5.60;87.40;;;;;;5114684;28;20020;-74
2021/03/12 05:05:38;;;;;;;12.40;2.13;;;5.60;87.50;;;;;;5114292;28;20403;-74
2021/03/12 05:08:08;;;;;;;17.95;3.13;;;5.60;87.70;;;;;;5115284;28;20016;-75
2021/03/12 05:10:33;;;;;;;17.23;4.20;;;5.50;87.70;;;;;;5115592;28;20019;-74
2021/03/12 05:13:01;;;;;;;15.23;2.75;;;5.50;87.90;;;;;;5113912;28;20026;-74
2021/03/12 05:15:26;;;;;;;12.77;2.85;;;5.50;88.70;;;;;;5114265;28;20012;-74
2021/03/12 05:17:52;;;;;;;18.77;2.90;;;5.50;88.30;;;;;;5114040;28;20057;-74
2021/03/12 05:20:18;;;;;;;19.05;2.97;;;5.50;88.40;;;;;;5115579;28;20125;-74
2021/03/12 05:22:43;;;;;;;8.30;2.17;;;5.40;88.30;;;;;;5114167;28;20023;-74
2021/03/12 05:25:09;;;;;;;13.02;2.60;;;5.40;88.50;;;;;;5113870;28;20023;-75
2021/03/12 05:27:35;;;;;;;17.90;3.75;;;5.40;88.60;;;;;;5113963;28;20015;-74
2021/03/12 05:30:00;;;;;;;24.27;3.83;;;5.40;88.70;;;;;;5114993;28;20039;-74
2021/03/12 05:32:26;;;;;;;21.27;4.03;;;5.30;88.70;;;;;;5115294;28;20020;-74
2021/03/12 05:34:51;;;;;;;15.05;4.93;;;5.30;88.80;;;;;;5113737;28;20022;-74
2021/03/12 05:37:17;;;;;;;12.93;2.90;;;5.30;89.00;;;;;;5115582;28;20073;-74
2021/03/12 05:39:42;;;;;;;16.38;3.60;;;5.30;89.00;;;;;;5113915;28;20080;-74
2021/03/12 05:42:09;;;;;;;10.93;2.45;;;5.20;89.20;;;;;;5115194;28;20016;-74
2021/03/12 05:44:35;;;;;;;18.77;3.55;;;5.20;89.30;;;;;;5115167;28;20026;-75
2021/03/12 05:47:00;;;;;;;20.90;3.78;;;5.20;89.30;;;;;;5113268;28;20467;-75
2021/03/12 05:49:27;;;;;;;18.58;3.78;;;5.20;89.40;;;;;;5113508;28;20039;-75
2021/03/12 05:51:53;;;;;;;15.25;2.92;;;5.20;89.50;;;;;;5113293;28;20031;-75
2021/03/12 05:54:19;;;;;;;15.77;4.25;;;5.10;89.50;;;;;;5113214;28;20039;-74
2021/03/12 05:56:44;;;;;;;16.48;4.18;;;5.10;89.50;;;;;;5113366;28;20463;-75
2021/03/12 05:59:10;;;;;;;18.25;2.90;;;5.10;89.50;;;;;;5113137;28;20099;-74
2021/03/12 06:01:36;;;;;;;21.33;3.78;;;5.10;89.40;;;;;;5113351;28;20026;-74
2021/03/12 06:04:01;;;;;;;22.92;4.60;;;5.10;89.40;;;;;;5113964;28;20125;-75
2021/03/12 06:06:27;;;;;;;18.80;4.38;;;5.20;89.40;;;;;;5112995;28;20044;-75
2021/03/12 06:08:53;;;;;;;15.70;4.28;;;5.10;89.20;;;;;;5114272;28;20019;-75
2021/03/12 06:11:19;;;;;;;19.88;4.40;;;5.20;89.20;;;;;;5112842;28;20023;-75
2021/03/12 06:13:53;;;;;;;19.45;3.65;;;5.20;89.00;;;;;;5114503;28;20069;-75
2021/03/12 06:16:22;;;;;;;15.43;3.03;;;5.30;88.70;;;;;;5113186;28;20466;-75
2021/03/12 06:19:17;;;;;;;18.15;4.55;;;5.30;88.50;;;;;;5113001;28;20031;-75
2021/03/12 06:21:45;;;;;;;13.02;3.22;;;5.40;88.10;;;;;;5113340;28;20078;-73
2021/03/12 06:24:34;;;;;;;17.60;3.95;;;5.50;87.80;;;;;;5114000;28;20041;-75
2021/03/12 06:27:00;;;;;;;14.88;4.22;;;5.50;87.40;;;;;;5112479;28;20051;-74
2021/03/12 06:29:39;;;;;;;16.83;3.55;;;5.60;87.10;;;;;;5112443;28;20024;-75
2021/03/12 06:32:06;;;;;;;23.90;4.28;;;5.60;86.80;;;;;;5112468;28;20030;-74
2021/03/12 06:34:33;;;;;;;17.05;4.38;;;5.60;86.60;;;;;;5112923;28;20411;-74
2021/03/12 06:37:19;;;;;;;15.43;4.28;;;5.70;86.40;;;;;;5096073;28;20081;-74
2021/03/12 06:39:44;;;;;;;21.17;3.83;;;5.60;86.40;;;;;;5103303;28;20020;-74
2021/03/12 06:42:10;;;;;;;23.38;3.78;;;5.60;86.50;;;;;;5096889;28;20016;-74
2021/03/12 06:44:37;;;;;;;13.75;3.72;;;5.60;86.50;;;;;;5093365;28;20111;-73
2021/03/12 06:47:05;;;;;;;19.92;3.28;;;5.60;86.90;;;;;;5091791;28;20393;-75
2021/03/12 06:49:32;;;;;;;15.25;4.00;;;5.60;86.60;;;;;;5092998;28;20127;-75
2021/03/12 06:52:03;;;;;;;16.70;4.25;;;5.50;86.50;;;;;;5091357;28;20383;-74
2021/03/12 06:54:32;;;;;;;12.70;4.50;;;5.60;86.50;;;;;;5091424;28;20115;-74
2021/03/12 06:56:58;;;;;;;17.27;3.30;;;5.60;86.60;;;;;;5091460;28;20020;-75
2021/03/12 06:59:30;;;;;;;21.98;3.47;;;5.60;86.40;;;;;;5091485;28;20095;-75
2021/03/12 07:02:06;;;;;;;19.00;3.80;;;5.60;86.30;;;;;;5091476;28;20026;-74
2021/03/12 07:04:32;;;;;;;20.20;3.97;;;5.70;86.10;;;;;;5091572;28;20433;-74
2021/03/12 07:06:59;;;;;;;21.35;4.10;;;5.70;85.90;;;;;;5090236;28;20122;-75
2021/03/12 07:09:26;;;;;;;18.27;4.07;;;5.70;85.90;;;;;;5092797;28;20024;-74
2021/03/12 07:11:58;;;;;;;16.27;4.07;;;5.70;85.90;;;;;;5091390;28;20020;-74
2021/03/12 07:14:24;;;;;;;19.52;3.45;;;5.80;85.70;;;;;;5091526;28;20020;-74
2021/03/12 07:16:51;;;;;;;17.58;4.47;;;5.80;85.60;;;;;;5091303;28;20023;-73
2021/03/12 07:19:18;;;;;;;18.90;3.80;;;6.00;85.50;;;;;;5092875;28;20019;-74
2021/03/12 07:21:47;;;;;;;15.93;3.65;;;6.00;84.80;;;;;;5091817;28;20027;-74
2021/03/12 07:24:16;;;;;;;17.55;4.53;;;6.10;84.50;;;;;;5091536;28;20112;-73
2021/03/12 07:26:46;;;;;;;27.35;6.63;;;6.20;84.20;;;;;;5091542;28;20082;-74
2021/03/12 07:29:12;;;;;;;17.85;3.80;;;6.20;83.70;;;;;;5092475;28;20027;-74
2021/03/12 07:31:40;;;;;;;22.80;4.50;;;6.30;83.70;;;;;;5091369;28;20364;-75
2021/03/12 07:34:13;;;;;;;16.60;3.42;;;6.30;83.50;;;;;;5092001;28;20511;-75
2021/03/12 07:36:44;;;;;;;15.90;4.03;;;6.40;83.40;;;;;;5091187;28;20099;-74
2021/03/12 07:39:13;;;;;;;18.02;3.80;;;6.50;83.20;;;;;;5092420;28;20020;-74
2021/03/12 07:41:40;;;;;;;23.95;3.70;;;6.60;83.00;;;;;;5091210;28;20024;-74
2021/03/12 07:44:06;;;;;;;19.02;3.53;;;6.60;82.40;;;;;;5092249;28;20456;-74
2021/03/12 07:46:31;;;;;;;19.02;4.70;;;6.70;82.20;;;;;;5092458;28;20050;-74
2021/03/12 07:48:57;;;;;;;26.40;4.35;;;6.80;82.20;;;;;;5090910;28;20059;-74
2021/03/12 07:51:22;;;;;;;23.27;3.97;;;6.90;81.50;;;;;;5092256;28;20028;-74
2021/03/12 07:53:55;;;;;;;15.88;2.70;;;7.00;81.30;;;;;;5090936;28;20016;-74
2021/03/12 07:56:44;;;;;;;19.40;3.97;;;7.10;80.90;;;;;;5092475;28;20085;-74
2021/03/12 07:59:11;;;;;;;19.43;3.03;;;7.20;80.50;;;;;;5092112;28;20100;-75
2021/03/12 08:02:06;;;;;;;19.73;3.25;;;7.20;80.30;;;;;;5090958;28;20031;-75
2021/03/12 08:04:33;;;;;;;29.13;4.53;;;7.20;80.60;;;;;;5077888;28;20123;-75
2021/03/12 08:07:19;;;;;;;19.42;2.92;;;7.30;80.10;;;;;;5090321;28;20047;-75
2021/03/12 08:09:48;;;;;;;18.27;3.60;;;7.50;79.70;;;;;;5092239;28;20519;-75
2021/03/12 08:12:37;;;;;;;22.38;3.50;;;7.60;79.50;;;;;;5090772;28;20035;-75
2021/03/12 08:15:27;;;;;;;23.10;4.10;;;7.70;79.00;;;;;;5090641;28;20009;-72
2021/03/12 08:17:56;;;;;;;22.30;3.53;;;7.90;79.10;;;;;;5091538;28;20436;-74
2021/03/12 08:20:37;;;;;;;24.70;3.72;;;8.10;77.70;;;;;;5095001;28;20122;-74
2021/03/12 08:23:04;;;;;;;19.30;3.88;;;8.30;76.70;;;;;;5096037;28;20105;-73
2021/03/12 08:25:33;;;;;;;16.75;3.30;;;8.40;77.20;;;;;;5094939;28;20046;-74
2021/03/12 08:27:59;;;;;;;22.95;4.80;;;8.60;76.00;;;;;;5096021;28;20052;-73
2021/03/12 08:30:25;;;;;;;21.52;4.57;;;8.70;76.10;;;;;;5096086;28;20028;-74
2021/03/12 08:32:52;;;;;;;15.85;3.05;;;8.80;76.30;;;;;;5096127;28;20465;-74
2021/03/12 08:35:37;;;;;;;22.15;3.72;;;8.80;75.70;;;;;;5094416;28;20020;-74
2021/03/12 08:38:10;;;;;;;17.50;3.45;;;8.90;74.60;;;;;;5095360;28;20345;-75
2021/03/12 08:40:36;;;;;;;39.67;7.53;;;9.10;74.30;;;;;;5094643;28;20020;-74
2021/03/12 08:43:08;;;;;;;24.67;3.28;;;9.20;72.80;;;;;;5094325;28;20024;-74
2021/03/12 08:45:43;;;;;;;19.67;4.70;;;9.30;74.50;;;;;;5094521;28;20008;-74
2021/03/12 08:48:16;;;;;;;20.23;5.20;;;9.50;71.80;;;;;;5094277;28;20476;-74
2021/03/12 08:50:43;;;;;;;17.90;4.13;;;9.60;72.10;;;;;;5094243;28;20088;-74
2021/03/12 08:53:13;;;;;;;24.63;5.38;;;9.70;71.50;;;;;;5095366;28;20031;-75
2021/03/12 08:55:43;;;;;;;30.27;4.18;;;9.70;71.90;;;;;;5094262;28;20020;-74
2021/03/12 08:58:19;;;;;;;15.02;4.68;;;9.70;72.00;;;;;;5095514;28;20027;-74
2021/03/12 09:00:47;;;;;;;16.30;3.50;;;9.70;71.00;;;;;;5094232;28;20034;-75
2021/03/12 09:03:27;;;;;;;17.38;3.00;;;9.60;72.40;;;;;;5095258;28;20048;-76
2021/03/12 09:06:05;;;;;;;;;;;9.50;73.00;;;;;;5095323;28;20434;-75
2021/03/12 09:08:32;;;;;;;27.77;4.78;;;9.40;72.20;;;;;;5094261;28;20371;-75
2021/03/12 09:10:58;;;;;;;24.38;5.43;;;9.30;73.00;;;;;;5093891;28;20028;-75
2021/03/12 09:13:27;;;;;;;21.92;3.97;;;9.30;72.60;;;;;;5095486;28;20020;-75
2021/03/12 09:15:53;;;;;;;26.67;5.70;;;9.30;73.30;;;;;;5095388;28;20453;-75
2021/03/12 09:18:21;;;;;;;23.15;4.25;;;9.40;72.30;;;;;;5093777;28;20024;-75
2021/03/12 09:20:52;;;;;;;18.40;3.83;;;9.60;73.80;;;;;;5094119;28;20031;-75
2021/03/12 09:23:18;;;;;;;21.73;4.57;;;9.60;72.30;;;;;;5094058;28;20042;-74
2021/03/12 09:25:43;;;;;;;18.52;3.92;;;9.60;71.70;;;;;;5093979;28;20016;-74
2021/03/12 09:28:15;;;;;;;21.48;4.60;;;9.60;72.00;;;;;;5095933;28;20472;-74
2021/03/12 09:30:43;;;;;;;20.92;3.95;;;9.40;71.70;;;;;;5095710;28;20372;-75
2021/03/12 09:33:25;;;;;;;16.52;3.90;;;9.20;74.30;;;;;;5093087;28;20059;-74
2021/03/12 09:35:51;;;;;;;23.98;4.60;;;9.10;76.00;;;;;;5093475;28;20043;-74
2021/03/12 09:38:35;;;;;;;19.63;3.95;;;9.00;75.80;;;;;;5092155;28;20101;-74
2021/03/12 09:41:31;;;;;;;28.55;5.32;;;8.90;76.40;;;;;;5092849;28;20031;-74
2021/03/12 09:44:00;;;;;;;22.48;5.35;;;8.90;75.10;;;;;;5092437;28;20500;-75
2021/03/12 09:46:31;;;;;;;18.88;5.32;;;8.80;76.40;;;;;;5094901;28;20039;-74
2021/03/12 09:48:57;;;;;;;19.25;4.63;;;8.80;75.60;;;;;;5094495;28;20043;-76
2021/03/12 09:51:24;;;;;;;24.95;4.93;;;8.80;75.50;;;;;;5093273;28;20368;-74
2021/03/12 09:53:51;;;;;;;22.45;4.95;;;8.80;74.60;;;;;;5093408;28;20024;-74
2021/03/12 09:56:22;;;;;;;18.70;4.60;;;8.80;74.70;;;;;;5093140;28;20020;-75
2021/03/12 09:58:49;;;;;;;24.02;5.35;;;8.70;75.60;;;;;;5094495;28;20023;-74
2021/03/12 10:01:17;;;;;;;21.05;4.60;;;8.80;75.70;;;;;;5093066;28;20031;-74
2021/03/12 10:03:44;;;;;;;21.38;4.30;;;8.80;74.80;;;;;;5094661;28;20099;-75
2021/03/12 10:06:11;;;;;;;23.50;4.75;;;8.80;76.20;;;;;;5092213;28;20503;-74
2021/03/12 10:09:06;;;;;;;19.80;4.57;;;8.70;74.70;;;;;;5094312;28;20048;-75
2021/03/12 10:11:40;;;;;;;18.50;4.93;;;8.70;75.70;;;;;;5094007;28;20359;-74
2021/03/12 10:14:34;;;;;;;18.40;4.35;;;8.80;74.90;;;;;;5109851;28;20073;-73
2021/03/12 10:17:20;;;;;;;21.08;4.78;;;8.80;74.90;;;;;;5110377;28;20031;-75
2021/03/12 10:19:58;;;;;;;22.65;4.50;;;8.70;76.00;;;;;;5100928;28;20539;-75
2021/03/12 10:22:43;;;;;;;17.02;4.18;;;8.70;76.50;;;;;;5092450;28;20375;-74
2021/03/12 10:25:16;;;;;;;22.08;4.47;;;8.70;75.70;;;;;;5092439;28;20448;-74
2021/03/12 10:27:45;;;;;;;23.23;4.38;;;8.80;75.30;;;;;;5093748;28;20444;-73
2021/03/12 10:30:20;;;;;;;19.30;3.72;;;8.70;76.20;;;;;;5093668;28;20089;-74
2021/03/12 10:32:48;;;;;;;24.52;4.32;;;8.70;76.30;;;;;;5092527;28;20020;-75
2021/03/12 10:35:18;;;;;;;19.48;5.22;;;8.60;77.10;;;;;;5092061;28;20024;-74
2021/03/12 10:37:43;;;;;;;24.52;4.57;;;8.50;77.30;;;;;;5092773;28;20016;-74
2021/03/12 10:40:09;;;;;;;18.15;3.58;;;8.50;78.70;;;;;;5091980;28;20024;-74
2021/03/12 10:42:35;;;;;;;18.17;5.25;;;8.40;79.00;;;;;;5093148;28;20461;-74
2021/03/12 10:45:07;;;;;;;15.32;3.47;;;8.30;79.70;;;;;;5093539;28;20028;-74
2021/03/12 10:47:33;;;;;;;21.48;3.40;;;8.30;80.90;;;;;;5092289;28;20012;-75
2021/03/12 10:49:59;;;;;;;17.40;3.70;;;8.30;80.20;;;;;;5093522;28;20020;-75
2021/03/12 10:52:27;;;;;;;15.60;3.47;;;8.30;80.60;;;;;;5092426;28;20474;-74
2021/03/12 10:54:54;;;;;;;19.88;4.40;;;8.30;80.10;;;;;;5092527;28;20015;-76
2021/03/12 10:57:35;;;;;;;17.45;4.03;;;8.30;79.60;;;;;;5092245;28;20039;-74
2021/03/12 11:00:01;;;;;;;18.60;3.97;;;8.30;80.00;;;;;;5092194;28;20040;-76
2021/03/12 11:02:34;;;;;;;22.75;5.72;;;8.30;80.30;;;;;;5092356;28;20016;-73
2021/03/12 11:05:00;;;;;;;19.92;4.25;;;8.30;81.20;;;;;;5092992;28;20406;-75
2021/03/12 11:07:26;;;;;;;23.30;4.40;;;8.20;82.30;;;;;;5091895;28;20044;-73
2021/03/12 11:09:52;;;;;;;12.07;3.13;;;8.20;80.90;;;;;;5092020;28;20016;-74
2021/03/12 11:12:17;;;;;;;23.30;4.25;;;8.10;81.80;;;;;;5092816;28;20023;-75
2021/03/12 11:14:43;;;;;;;10.85;1.90;;;8.00;82.40;;;;;;5091773;28;20024;-75
2021/03/12 11:17:08;;;;;;;21.17;4.00;;;8.10;85.90;;;;;;5092121;28;20498;-77
2021/03/12 11:19:34;;;;;;;19.35;3.85;;;8.00;84.50;;;;;;5092179;28;20016;-76
2021/03/12 11:22:00;;;;;;;17.08;4.32;;;8.00;84.20;;;;;;5092254;28;20023;-75
2021/03/12 11:24:25;;;;;;;23.02;6.57;;;7.90;83.70;;;;;;5091336;28;20356;-77
2021/03/12 11:26:51;;;;;;;22.50;3.88;;;7.90;84.10;;;;;;5091384;28;20119;-77
2021/03/12 11:29:16;;;;;;;20.73;4.65;;;7.90;84.30;;;;;;5090259;28;20032;-77
2021/03/12 11:31:42;;;;;;;20.27;3.92;;;7.90;84.10;;;;;;5107184;28;20035;-76
2021/03/12 11:34:08;;;;;;;19.33;4.40;;;7.90;84.40;;;;;;5091996;28;20012;-76
2021/03/12 11:36:34;;;;;;;18.00;3.60;;;8.00;84.70;;;;;;5094319;28;20565;-74
2021/03/12 11:39:00;;;;;;;20.58;4.82;;;8.10;85.00;;;;;;5091950;28;20341;-75
2021/03/12 11:41:25;;;;;;;13.85;3.30;;;8.30;83.20;;;;;;5097948;28;20016;-75
2021/03/12 11:43:51;;;;;;;20.55;5.20;;;8.50;83.70;;;;;;5104646;28;20051;-75
2021/03/12 11:46:16;;;;;;;21.05;3.85;;;8.60;81.00;;;;;;5093525;28;20059;-75
2021/03/12 11:48:42;;;;;;;21.60;4.45;;;8.60;81.40;;;;;;5092139;28;20020;-75
2021/03/12 11:51:07;;;;;;;22.83;6.00;;;8.60;81.20;;;;;;5092113;28;20085;-75
2021/03/12 11:53:35;;;;;;;19.50;4.18;;;8.60;81.60;;;;;;5090701;28;20431;-75
2021/03/12 11:56:00;;;;;;;22.88;3.70;;;8.70;80.00;;;;;;5092238;28;20048;-75
2021/03/12 11:58:26;;;;;;;21.67;4.03;;;8.70;80.00;;;;;;5090611;28;20124;-75
2021/03/12 12:00:51;;;;;;;13.95;3.47;;;8.70;81.90;;;;;;5090722;28;20024;-74
2021/03/12 12:03:17;;;;;;;17.90;4.35;;;8.80;83.20;;;;;;5090638;28;20014;-74
2021/03/12 12:05:43;;;;;;;17.05;3.25;;;8.80;77.90;;;;;;5090454;28;20445;-74
2021/03/12 12:08:09;;;;;;;20.27;4.28;;;8.80;80.50;;;;;;5092295;28;20021;-74
2021/03/12 12:10:34;;;;;;;23.50;4.40;;;8.90;78.60;;;;;;5091889;28;20460;-74
2021/03/12 12:13:00;;;;;;;17.25;4.57;;;9.10;78.70;;;;;;5091513;28;20028;-74
2021/03/12 12:15:26;;;;;;;19.30;4.15;;;9.30;75.00;;;;;;5092204;28;20024;-74
2021/03/12 12:18:00;;;;;;;18.38;4.18;;;9.40;74.10;;;;;;5092237;28;20024;-74
2021/03/12 12:20:27;;;;;;;16.13;3.70;;;9.70;77.30;;;;;;5090477;28;20054;-73
2021/03/12 12:22:52;;;;;;;16.48;3.80;;;9.90;70.90;;;;;;5090801;28;20048;-74
2021/03/12 12:25:18;;;;;;;18.85;3.85;;;9.90;75.50;;;;;;5091637;28;20494;-75
2021/03/12 12:27:44;;;;;;;20.15;2.80;;;9.80;73.20;;;;;;5091983;28;20444;-75
2021/03/12 12:30:10;;;;;;;12.98;3.63;;;9.80;75.10;;;;;;5090027;28;20014;-76
2021/03/12 12:32:37;;;;;;;14.82;3.38;;;9.60;71.80;;;;;;5091842;28;20012;-75
2021/03/12 12:35:04;;;;;;;17.13;2.85;;;9.50;74.60;;;;;;5091172;28;20016;-76
2021/03/12 12:37:30;;;;;;;14.73;3.55;;;9.40;74.30;;;;;;5090323;28;20042;-74
2021/03/12 12:39:55;;;;;;;14.25;3.60;;;9.40;75.20;;;;;;5091048;28;20017;-74
2021/03/12 12:42:21;;;;;;;13.40;3.65;;;9.40;73.60;;;;;;5091045;28;20070;-75
2021/03/12 12:44:47;;;;;;;14.00;2.83;;;9.40;74.70;;;;;;5092411;28;20020;-75
2021/03/12 12:47:12;;;;;;;15.45;3.35;;;9.30;74.30;;;;;;5090971;28;20360;-75
2021/03/12 12:49:38;;;;;;;17.35;2.80;;;9.30;75.00;;;;;;5092649;28;20411;-77
2021/03/12 12:52:04;;;;;;;14.50;3.20;;;9.30;77.40;;;;;;5091715;28;20020;-76
2021/03/12 12:54:30;;;;;;;16.88;4.03;;;9.20;76.30;;;;;;5091813;28;20016;-75